Date,TemperatureHighF,TemperatureAvgF,TemperatureLowF,DewpointHighF,DewpointAvgF,DewpointLowF,HumidityHigh,HumidityAvg,HumidityLow,PressureMaxIn,PressureMinIn,WindSpeedMaxMPH,WindSpeedAvgMPH,GustSpeedMaxMPH,PrecipitationSumIn
2013-1-1,24.5,20.5,11.2,21.4,18.0,8.4,92,90,87,28.01,27.86,2,0,2,0.00
2013-1-2,28.1,20.3,6.3,23.8,16.9,3.3,91,87,79,28.01,27.87,3,0,3,0.00
2013-1-3,29.2,12.5,4.0,21.7,8.8,0.6,89,85,76,27.87,27.72,2,0,2,0.00
2013-1-4,31.7,24.5,10.8,25.9,20.9,7.7,91,87,78,27.84,27.75,2,0,2,0.00
2013-1-5,39.4,28.1,20.5,32.3,24.5,18.3,92,87,72,27.81,27.63,2,0,2,0.01
2013-1-6,30.6,28.4,25.2,28.8,25.7,22.9,93,89,83,27.66,27.53,4,0,4,0.00
2013-1-7,37.6,33.6,30.2,35.8,31.8,28.4,95,93,86,27.53,27.32,11,2,11,0.00
2013-1-8,40.0,35.3,32.2,36.7,32.6,29.4,96,90,84,27.61,27.36,8,1,8,0.03
2013-1-9,42.8,38.5,31.9,36.1,33.3,28.9,91,82,72,27.37,27.14,10,3,10,0.24
2013-1-10,31.7,28.2,25.0,28.9,25.2,22.7,92,88,81,27.36,27.27,4,1,4,0.00
2013-1-11,38.7,22.1,6.1,25.2,16.3,2.0,92,80,51,27.71,27.36,4,0,4,0.00
2013-1-12,25.6,17.4,4.0,21.1,14.2,0.4,92,87,77,27.74,27.64,2,0,2,0.00
2013-1-13,27.0,15.0,5.6,18.4,10.5,2.3,89,82,65,27.84,27.73,4,0,4,0.00
2013-1-14,25.0,21.2,16.0,20.8,18.2,12.6,92,88,82,27.87,27.71,5,0,5,0.00
2013-1-15,29.9,19.4,8.1,27.1,16.6,5.0,91,89,85,28.01,27.86,3,0,3,0.00
2013-1-16,34.7,17.4,6.5,26.9,13.0,3.6,90,83,68,28.01,27.95,5,0,5,0.03
2013-1-17,32.2,16.8,6.3,25.8,13.6,3.0,92,87,76,27.99,27.80,3,0,3,0.01
2013-1-18,32.8,18.2,8.8,24.8,14.8,5.9,90,86,71,27.81,27.66,3,0,3,0.00
2013-1-19,38.9,18.1,6.5,29.0,13.6,3.6,89,83,63,27.87,27.77,2,0,2,0.00
2013-1-20,35.6,18.5,6.8,27.5,14.0,3.5,89,83,67,27.94,27.82,2,0,2,0.00
2013-1-21,29.5,12.6,2.9,24.2,9.0,-0.7,90,86,79,27.83,27.69,3,0,3,0.00
2013-1-22,25.4,16.1,4.3,20.9,13.0,0.5,90,88,80,27.75,27.61,3,0,3,0.00
2013-1-23,36.2,26.6,18.0,32.2,23.4,15.5,94,88,73,27.61,27.40,6,0,6,0.01
2013-1-24,38.2,28.5,23.4,33.5,25.9,20.9,94,90,81,27.74,27.56,3,0,3,0.00
2013-1-25,41.4,35.5,30.6,38.0,33.6,28.6,96,93,84,27.62,27.40,3,0,3,0.24
2013-1-26,36.4,33.4,29.9,35.3,31.6,28.6,96,93,86,27.44,27.36,6,1,6,0.02
2013-1-27,31.7,29.9,26.6,30.0,27.9,24.8,95,92,89,27.48,27.41,5,1,5,0.01
2013-1-28,32.0,29.7,27.9,30.1,27.9,26.1,95,93,89,27.41,27.32,5,0,5,0.00
2013-1-29,40.1,32.2,27.7,33.2,29.5,25.9,95,90,75,27.65,27.34,3,0,3,0.01
2013-1-30,44.5,35.8,31.3,37.5,33.3,29.1,96,91,76,27.72,27.58,8,2,8,0.12
2013-1-31,41.9,36.8,34.6,38.2,35.0,33.1,96,93,86,27.73,27.65,4,1,4,0.02
2013-2-1,42.8,32.8,23.4,37.7,30.4,21.3,95,91,77,27.89,27.68,4,1,4,0.00
2013-2-2,35.5,28.5,20.2,32.3,26.6,17.9,95,92,88,27.92,27.72,2,0,2,0.00
2013-2-3,36.5,31.2,23.2,33.9,29.4,21.7,95,93,90,27.73,27.58,4,0,4,0.00
2013-2-4,41.0,33.6,27.9,36.8,31.6,26.4,96,92,84,27.61,27.45,4,0,4,0.00
2013-2-5,42.3,35.0,26.8,36.3,32.1,25.0,95,89,77,27.46,27.32,6,1,6,0.00
2013-2-6,45.0,36.5,31.3,34.8,31.6,27.8,92,83,64,27.53,27.41,9,2,9,0.00
2013-2-7,41.8,35.8,32.4,35.8,31.3,28.4,93,84,72,27.51,27.38,5,1,5,0.03
2013-2-8,38.2,32.3,28.1,33.9,30.0,25.8,95,92,84,27.60,27.51,2,0,2,0.14
2013-2-9,38.0,29.7,21.2,30.9,26.7,18.8,95,89,74,27.65,27.51,5,0,5,0.00
2013-2-10,34.2,26.6,20.5,31.1,24.0,18.3,93,90,81,27.73,27.66,3,0,3,0.00
2013-2-11,41.8,29.1,16.4,32.0,25.0,14.1,94,85,67,27.71,27.64,6,0,6,0.00
2013-2-12,43.0,35.8,30.8,36.5,32.2,28.6,94,87,70,27.74,27.62,7,1,7,0.00
2013-2-13,45.4,36.3,23.6,35.5,30.2,20.6,92,79,55,27.79,27.61,9,2,9,0.00
2013-2-14,43.2,30.2,20.2,33.8,25.5,17.6,94,83,62,27.97,27.79,5,0,5,0.00
2013-2-15,52.4,32.6,20.2,38.0,27.0,17.6,93,81,56,27.97,27.71,5,0,5,0.00
2013-2-16,48.6,34.5,22.7,38.6,30.0,20.2,93,84,66,27.72,27.40,7,1,7,0.00
2013-2-17,45.0,34.4,25.9,31.8,26.9,21.6,91,75,51,27.57,27.44,9,2,9,0.02
2013-2-18,42.3,31.3,21.8,31.1,25.0,19.3,93,78,51,27.57,27.27,7,1,7,0.00
2013-2-19,37.3,32.2,27.0,33.5,29.2,24.8,93,88,85,27.36,27.21,3,0,3,0.16
2013-2-20,41.6,30.0,20.3,32.8,26.4,17.5,95,87,62,27.46,27.36,5,0,5,0.00
2013-2-21,35.8,29.9,19.6,33.4,27.4,17.1,93,90,84,27.48,27.43,6,1,6,0.01
2013-2-22,37.3,33.2,29.2,35.0,31.0,26.8,95,92,76,27.46,27.13,10,2,10,0.29
2013-2-23,45.7,31.8,22.1,30.7,24.4,18.9,90,75,43,27.69,27.19,12,3,12,0.05
2013-2-24,39.1,30.0,22.1,30.0,25.4,19.9,93,83,66,27.75,27.52,8,1,8,0.00
2013-2-25,41.9,35.5,31.1,34.1,28.4,22.5,93,76,60,27.58,27.38,10,3,10,0.26
2013-2-26,43.2,32.3,25.2,29.4,25.5,22.3,92,77,53,27.75,27.58,6,1,6,0.00
2013-2-27,48.6,36.1,30.2,33.2,27.6,24.6,87,72,51,27.73,27.66,8,1,8,0.00
2013-2-28,40.7,36.5,30.8,38.5,34.3,27.3,95,92,86,27.79,27.67,4,1,4,0.23
2013-3-1,51.5,46.1,39.6,45.5,42.2,36.8,96,87,78,27.82,27.75,9,2,9,0.00
2013-3-2,53.6,46.1,37.4,43.5,39.9,34.7,93,79,66,27.75,27.39,8,1,8,0.00
2013-3-3,45.7,36.7,26.1,37.3,21.9,17.7,79,56,35,27.63,27.39,12,3,12,0.00
2013-3-4,49.3,30.2,19.1,26.0,20.2,14.9,88,68,38,27.75,27.53,6,1,6,0.00
2013-3-5,42.3,32.2,21.2,29.7,23.9,16.6,86,73,47,27.54,27.30,4,0,4,0.00
2013-3-6,55.6,37.7,30.2,42.2,33.2,25.8,94,84,59,27.32,27.07,10,1,10,0.12
2013-3-7,48.6,35.8,25.6,38.3,30.8,22.5,94,83,56,27.53,27.32,6,1,6,0.31
2013-3-8,45.9,31.3,23.8,38.8,28.2,20.5,94,89,74,27.59,27.51,5,0,5,0.00
2013-3-9,54.9,36.1,22.7,37.3,27.3,20.7,94,74,39,27.85,27.59,8,1,8,0.00
2013-3-10,45.7,34.3,25.0,36.3,29.2,22.0,94,83,56,27.84,27.71,8,1,8,0.02
2013-3-11,55.6,38.9,29.9,37.5,28.5,18.9,94,71,27,27.76,27.68,5,0,5,0.00
2013-3-12,58.0,45.1,35.3,45.0,38.9,28.5,91,79,57,27.70,27.53,10,2,10,0.03
2013-3-13,57.2,49.4,43.6,43.8,41.2,38.1,88,74,58,27.67,27.56,8,1,8,0.00
2013-3-14,62.5,51.5,41.0,44.5,40.9,31.9,88,69,44,27.62,27.47,7,1,7,0.00
2013-3-15,58.3,47.7,39.1,43.9,37.9,32.9,91,70,52,27.64,27.51,8,2,8,0.01
2013-3-16,51.8,42.6,34.0,41.0,36.4,29.5,90,79,56,27.53,27.19,11,2,11,0.08
2013-3-17,45.7,35.9,28.6,30.3,23.3,15.7,86,63,33,27.48,27.22,12,4,12,0.00
2013-3-18,47.7,33.5,24.5,30.3,23.0,17.5,89,68,32,27.63,27.43,16,2,16,0.00
2013-3-19,51.7,35.1,16.9,29.8,23.0,13.3,93,65,35,27.72,27.31,7,1,7,0.00
2013-3-20,52.7,42.8,34.4,47.8,37.7,29.8,93,82,60,27.31,27.01,13,3,13,0.55
2013-3-21,45.0,34.0,27.4,30.1,24.5,18.6,85,70,36,27.48,27.30,13,4,13,0.00
2013-3-22,46.1,30.3,21.8,29.1,21.6,18.1,92,73,36,27.70,27.47,8,1,8,0.00
2013-3-23,47.9,29.4,17.1,27.6,20.4,13.8,93,72,37,27.76,27.68,7,1,7,0.00
2013-3-24,49.7,31.6,18.2,27.0,17.2,10.2,92,61,22,27.77,27.64,7,1,7,0.00
2013-3-25,55.1,34.0,18.0,30.0,21.5,12.3,86,63,36,27.65,27.47,6,0,6,0.00
2013-3-26,61.6,39.8,23.0,34.9,26.5,19.0,87,63,32,27.48,27.42,6,1,6,0.00
2013-3-27,57.1,42.5,31.0,42.4,34.5,25.9,88,74,55,27.48,27.42,7,1,7,0.00
2013-3-28,62.1,45.1,30.8,45.2,36.3,27.8,93,74,42,27.57,27.48,6,1,6,0.00
2013-3-29,65.0,45.5,31.3,43.1,34.3,28.8,94,69,32,27.69,27.57,8,1,8,0.00
2013-3-30,71.3,46.0,27.9,44.8,33.6,25.1,93,67,31,27.74,27.60,5,0,5,0.00
2013-3-31,75.1,48.6,27.9,43.0,32.9,24.3,91,61,23,27.61,27.42,6,0,6,0.00
2013-4-1,75.2,50.8,31.0,42.3,35.3,27.5,90,61,26,27.48,27.42,6,1,6,0.00
2013-4-2,66.2,52.0,37.3,46.0,40.8,34.0,94,68,41,27.58,27.47,10,2,10,0.00
2013-4-3,67.0,50.9,38.2,43.1,39.2,33.9,93,67,36,27.60,27.49,8,1,8,0.00
2013-4-4,58.7,47.8,36.7,49.4,42.1,32.7,94,81,53,27.50,27.23,7,1,7,0.15
2013-4-5,59.8,49.7,43.7,48.5,42.2,38.3,93,77,51,27.36,27.29,13,3,13,0.07
2013-4-6,56.7,48.1,43.9,42.7,38.0,31.5,93,70,44,27.36,27.30,13,3,13,0.09
2013-4-7,51.5,43.0,36.0,43.6,36.6,30.9,93,79,52,27.32,27.06,12,2,12,0.26
2013-4-8,49.9,38.4,28.6,37.8,31.3,24.1,93,77,49,27.70,27.25,4,1,4,0.00
2013-4-9,57.1,40.9,25.6,36.0,29.6,22.1,91,67,41,27.77,27.66,7,1,7,0.00
2013-4-10,60.3,48.4,39.1,48.5,37.1,29.1,88,66,40,27.69,27.30,16,3,16,0.10
2013-4-11,56.0,42.9,33.1,36.6,31.1,24.5,89,66,34,27.59,27.50,10,3,10,0.00
2013-4-12,57.2,41.3,27.2,38.1,31.1,24.1,94,70,37,27.56,27.09,14,2,14,0.19
2013-4-13,50.9,39.4,31.3,37.9,26.5,18.9,91,62,32,27.30,27.06,13,4,13,0.01
2013-4-14,50.6,37.0,28.8,32.7,28.4,23.1,90,73,43,27.40,27.30,7,1,7,0.00
2013-4-15,52.9,37.9,28.4,27.3,22.0,16.9,87,56,30,27.57,27.35,7,1,7,0.00
2013-4-16,50.4,36.4,23.4,20.2,16.7,13.5,69,47,28,27.78,27.57,8,1,8,0.00
2013-4-17,56.7,37.2,17.3,23.0,16.7,11.3,83,49,18,27.85,27.75,8,1,8,0.00
2013-4-18,57.6,42.5,25.0,36.6,28.6,17.9,77,59,41,27.78,27.63,7,2,9,0.00
2013-4-19,56.3,47.6,42.5,47.9,42.9,36.5,94,84,62,27.63,27.41,10,3,10,0.20
2013-4-20,60.1,48.5,36.7,41.6,35.9,29.9,92,65,39,27.56,27.43,11,4,12,0.00
2013-4-21,54.2,42.3,31.5,42.5,34.0,27.5,87,73,48,27.71,27.52,8,1,8,0.05
2013-4-22,56.5,41.1,27.9,31.1,23.5,16.3,85,55,24,27.90,27.71,6,1,6,0.00
2013-4-23,60.5,41.0,23.9,30.2,25.1,19.8,85,58,26,27.81,27.67,7,1,7,0.00
2013-4-24,64.6,45.5,25.0,34.8,28.4,21.7,89,57,27,27.74,27.45,8,2,8,0.05
2013-4-25,71.6,52.0,30.6,38.5,32.6,26.1,85,52,25,27.53,27.42,8,1,8,0.00
2013-4-26,74.9,56.2,35.3,47.3,38.2,30.2,87,55,26,27.66,27.53,11,2,11,0.00
2013-4-27,67.3,54.4,45.0,40.0,36.5,31.8,75,52,32,27.60,27.46,10,3,10,0.00
2013-4-28,61.6,52.2,41.6,41.0,35.4,27.2,82,55,34,27.56,27.34,13,4,13,0.00
2013-4-29,57.4,48.3,35.3,37.6,23.9,11.5,76,42,20,27.43,27.24,15,5,15,0.00
2013-4-30,54.4,39.7,27.2,29.5,22.3,17.3,76,51,28,27.78,27.43,10,1,10,0.00
2013-5-1,60.8,41.8,22.0,31.7,23.7,18.1,90,55,22,28.03,27.78,7,1,8,0.00
2013-5-2,71.1,50.1,25.9,36.6,28.4,20.3,82,49,20,28.03,27.74,6,1,6,0.00
2013-5-3,73.8,57.6,45.0,43.6,38.2,34.9,73,51,28,27.75,27.66,7,1,7,0.00
2013-5-4,76.5,58.4,37.6,41.6,35.2,29.3,85,47,20,27.74,27.57,9,1,9,0.00
2013-5-5,82.8,60.6,40.0,41.7,34.8,28.8,68,43,19,27.57,27.37,6,1,6,0.02
2013-5-6,87.5,61.5,37.1,44.4,36.8,28.4,82,48,15,27.40,27.27,6,1,6,0.00
2013-5-7,88.6,63.9,38.0,47.9,40.4,32.9,85,50,16,27.40,27.30,7,1,7,0.00
2013-5-8,86.8,65.4,44.3,53.6,45.7,37.7,84,54,24,27.51,27.40,7,1,7,0.00
2013-5-9,90.4,67.1,46.3,55.4,45.5,34.8,87,54,16,27.60,27.50,6,1,6,0.00
2013-5-10,89.8,67.0,44.5,52.8,44.5,37.0,83,52,18,27.68,27.57,6,1,6,0.00
2013-5-11,88.0,67.4,48.4,52.8,46.2,41.1,82,52,23,27.65,27.51,8,1,8,0.00
2013-5-12,81.2,66.0,52.6,53.8,49.5,43.5,77,57,35,27.54,27.47,10,2,10,0.00
2013-5-13,66.6,55.4,46.3,52.7,47.5,35.3,92,75,51,27.56,27.43,8,2,8,0.49
2013-5-14,65.5,49.9,37.3,39.2,34.3,26.4,86,59,25,27.62,27.53,7,1,7,0.00
2013-5-15,67.5,51.9,32.6,42.5,35.6,28.7,89,58,32,27.58,27.43,4,1,4,0.00
2013-5-16,64.8,54.5,43.7,48.4,43.8,38.3,84,68,49,27.45,27.37,5,1,5,0.00
2013-5-17,70.9,54.3,37.4,49.5,43.1,33.8,93,68,40,27.45,27.35,9,1,9,0.00
2013-5-18,64.4,52.8,46.4,47.0,42.3,38.9,81,68,47,27.61,27.44,7,1,7,0.00
2013-5-19,66.6,54.7,43.7,51.2,43.9,38.6,83,68,47,27.73,27.61,6,1,6,0.00
2013-5-20,74.7,56.8,36.7,48.4,42.1,33.3,91,62,33,27.73,27.38,6,1,6,0.00
2013-5-21,75.4,53.7,37.1,49.6,42.4,33.3,89,68,38,27.38,27.13,16,2,16,0.22
2013-5-22,51.8,40.8,32.8,40.1,35.8,29.4,94,83,56,27.48,27.28,8,1,8,0.06
2013-5-23,62.3,44.6,29.2,44.3,34.4,26.1,92,70,41,27.50,27.43,4,0,4,0.01
2013-5-24,56.5,42.1,29.3,43.5,36.6,25.6,92,82,54,27.50,27.42,7,1,7,0.10
2013-5-25,63.4,48.5,33.1,46.2,38.2,30.8,94,70,42,27.51,27.46,6,1,6,0.00
2013-5-26,72.9,55.0,34.0,48.3,40.1,29.7,89,61,33,27.47,27.39,8,1,8,0.03
2013-5-27,67.9,55.8,49.0,47.3,44.9,40.3,87,69,41,27.45,27.29,8,1,8,0.07
2013-5-28,64.6,54.1,46.8,50.8,46.9,41.1,91,78,51,27.35,27.29,7,1,7,0.07
2013-5-29,60.5,50.5,39.6,50.4,44.1,36.0,92,79,59,27.37,27.20,11,1,11,0.07
2013-5-30,63.0,51.4,41.8,47.0,41.8,35.0,92,72,43,27.60,27.37,7,2,7,0.09
2013-5-31,70.2,52.8,35.8,45.3,38.1,32.2,90,61,33,27.74,27.60,9,1,9,0.00
2013-6-1,72.4,55.5,35.3,47.8,39.7,30.6,87,59,31,27.73,27.47,7,1,7,0.00
2013-6-2,66.1,51.6,40.5,51.5,44.1,35.3,89,76,55,27.48,27.40,5,0,5,0.22
2013-6-3,74.0,52.4,38.2,50.2,42.3,35.2,94,72,34,27.54,27.43,8,1,8,0.25
2013-6-4,77.8,59.7,40.5,51.1,44.4,36.0,91,61,34,27.63,27.55,5,1,5,0.00
2013-6-5,82.6,64.4,42.1,52.9,45.9,37.4,88,56,29,27.58,27.45,7,1,7,0.00
2013-6-6,85.9,69.0,53.3,54.1,49.7,45.7,80,54,30,27.51,27.41,7,1,7,0.00
2013-6-7,82.3,67.3,52.2,53.8,45.8,32.4,83,50,23,27.44,27.35,12,3,12,0.00
2013-6-8,80.6,64.2,43.9,44.7,40.3,36.0,81,45,22,27.54,27.42,11,2,11,0.00
2013-6-9,76.7,62.4,47.0,44.3,38.1,32.3,75,44,22,27.44,27.35,10,2,10,0.00
2013-6-10,78.1,59.4,39.2,43.8,37.3,30.6,75,48,24,27.38,27.27,7,1,7,0.00
2013-6-11,70.2,57.0,40.7,46.4,38.5,31.2,81,53,26,27.51,27.29,9,2,9,0.00
2013-6-12,69.7,56.0,41.2,42.9,38.0,33.3,80,53,34,27.56,27.48,8,1,8,0.00
2013-6-13,68.9,52.7,41.2,49.2,39.2,32.1,83,62,34,27.56,27.50,9,1,9,0.04
2013-6-14,70.6,54.8,38.2,46.3,39.7,33.1,88,60,33,27.64,27.55,8,2,8,0.00
2013-6-15,81.4,61.8,39.4,48.4,39.4,31.3,81,49,22,27.55,27.45,6,1,6,0.00
2013-6-16,87.5,67.2,44.3,50.4,42.3,35.1,76,45,19,27.53,27.43,6,1,6,0.00
2013-6-17,83.9,70.3,57.2,53.4,48.0,41.2,69,47,28,27.51,27.34,7,1,7,0.00
2013-6-18,66.1,59.7,52.7,54.2,50.0,45.8,86,71,53,27.43,27.33,8,1,8,0.09
2013-6-19,54.5,51.8,48.4,51.8,48.8,46.4,94,89,82,27.37,27.28,5,1,5,0.38
2013-6-20,49.3,48.1,47.2,47.4,46.4,45.4,95,94,92,27.54,27.30,9,2,9,1.14
2013-6-21,63.4,53.2,47.2,53.1,47.8,42.9,95,83,58,27.60,27.53,4,1,4,0.08
2013-6-22,69.3,56.2,40.7,54.5,46.6,37.7,93,72,48,27.59,27.45,5,1,5,0.00
2013-6-23,75.2,61.0,41.4,55.0,47.7,37.8,91,65,37,27.45,27.17,7,1,7,0.00
2013-6-24,63.2,58.2,53.1,57.5,53.8,50.6,92,86,74,27.26,27.14,6,1,6,0.44
2013-6-25,68.6,57.6,47.0,58.5,51.4,44.8,94,81,61,27.40,27.26,6,1,6,0.35
2013-6-26,73.3,62.5,51.3,57.7,53.3,47.3,90,73,54,27.61,27.40,5,1,5,0.00
2013-6-27,82.1,67.4,51.7,62.0,55.6,48.2,92,68,46,27.69,27.61,6,1,6,0.00
2013-6-28,90.5,72.1,52.4,62.9,56.2,48.2,90,61,33,27.71,27.58,5,1,5,0.00
2013-6-29,78.7,67.1,55.6,64.9,59.2,50.5,93,76,56,27.64,27.50,6,1,6,0.10
2013-6-30,92.7,73.6,53.8,66.0,57.4,50.7,92,62,26,27.58,27.50,6,1,6,0.01
2013-7-1,100.1,78.2,56.5,66.6,59.1,51.5,89,57,23,27.54,27.43,6,1,6,0.00
2013-7-2,97.2,79.7,60.8,71.5,62.4,55.2,88,60,30,27.54,27.42,5,1,5,0.00
2013-7-3,91.1,75.3,60.1,61.6,52.9,38.5,81,50,18,27.53,27.41,7,1,7,0.00
2013-7-4,84.6,69.8,54.4,51.8,46.9,41.0,76,47,25,27.45,27.33,9,2,9,0.00
2013-7-5,81.7,66.4,50.4,51.7,45.9,41.8,76,50,29,27.41,27.32,6,1,9,0.00
2013-7-6,85.0,67.0,49.0,55.2,48.0,41.2,79,53,30,27.43,27.34,7,1,7,0.00
2013-7-7,88.6,69.8,47.5,54.1,46.3,41.3,84,49,22,27.41,27.32,5,1,5,0.00
2013-7-8,84.6,67.8,54.0,56.3,49.0,43.5,79,54,30,27.58,27.34,9,1,9,0.00
2013-7-9,88.6,69.9,49.3,57.5,46.8,41.1,84,49,21,27.64,27.50,7,1,7,0.00
2013-7-10,92.0,72.3,49.5,55.4,47.0,38.8,79,45,19,27.51,27.29,9,2,9,0.00
2013-7-11,82.3,68.1,53.5,50.2,39.2,22.6,65,39,13,27.40,27.30,10,2,10,0.00
2013-7-12,79.4,63.2,46.4,44.3,35.4,26.8,60,38,17,27.45,27.35,8,1,8,0.00
2013-7-13,79.0,63.0,46.1,45.7,39.3,32.8,70,44,25,27.63,27.45,6,1,6,0.00
2013-7-14,85.7,65.9,42.1,51.1,39.9,33.8,80,44,18,27.60,27.43,8,1,8,0.00
2013-7-15,86.4,66.4,43.9,47.5,38.6,30.1,72,41,15,27.49,27.42,6,1,6,0.00
2013-7-16,88.9,71.3,47.7,56.6,45.9,32.9,70,43,26,27.48,27.35,7,1,7,0.00
2013-7-17,91.1,78.0,63.0,57.6,52.8,45.6,72,44,26,27.58,27.32,8,1,8,0.00
2013-7-18,90.9,72.5,52.2,51.4,45.4,39.9,77,43,18,27.64,27.53,6,1,6,0.02
2013-7-19,94.7,74.1,50.0,52.0,44.3,38.0,72,40,17,27.58,27.44,7,1,7,0.00
2013-7-20,95.2,73.0,51.5,51.4,39.5,24.4,74,37,10,27.46,27.33,7,1,7,0.00
2013-7-21,91.8,72.2,49.7,48.8,40.1,31.4,64,34,18,27.38,27.30,7,1,7,0.00
2013-7-22,92.5,73.9,54.7,52.5,44.1,37.8,65,38,18,27.43,27.31,8,2,8,0.00
2013-7-23,95.8,74.5,51.7,52.9,42.5,34.2,67,36,13,27.53,27.43,8,1,8,0.00
2013-7-24,96.3,74.4,49.7,53.3,43.5,35.5,73,38,15,27.51,27.43,8,1,8,0.00
2013-7-25,95.8,74.4,49.5,53.5,42.5,32.3,73,37,15,27.54,27.46,7,1,7,0.00
2013-7-26,95.4,73.8,50.0,48.6,36.9,29.5,61,31,11,27.58,27.44,7,1,7,0.00
2013-7-27,89.3,70.4,52.2,44.8,35.6,27.8,54,31,13,27.51,27.37,6,1,6,0.00
2013-7-28,84.1,66.4,47.2,48.1,38.4,29.5,63,38,21,27.41,27.33,6,1,6,0.00
2013-7-29,85.9,66.3,45.4,50.0,40.6,33.5,67,42,22,27.44,27.36,6,1,6,0.00
2013-7-30,89.3,70.3,51.1,48.2,40.8,35.7,67,38,18,27.58,27.44,6,1,6,0.00
2013-7-31,88.2,70.9,51.1,53.2,43.2,35.2,64,40,19,27.61,27.46,15,1,15,0.00
2013-8-1,70.2,61.2,50.8,56.0,48.8,39.7,86,64,47,27.47,27.40,5,0,5,0.08
2013-8-2,60.8,57.1,54.4,57.4,54.4,52.0,94,90,85,27.58,27.43,5,1,5,1.02
2013-8-3,76.5,63.9,56.5,60.7,56.0,51.0,93,77,50,27.61,27.54,4,0,4,0.04
2013-8-4,85.0,67.7,50.0,61.5,53.3,46.5,93,64,34,27.59,27.46,6,1,6,0.00
2013-8-5,87.8,70.1,52.2,60.9,52.8,47.5,88,58,30,27.50,27.40,6,1,6,0.00
2013-8-6,90.7,72.1,53.5,59.0,51.2,44.8,85,53,23,27.50,27.40,6,1,6,0.00
2013-8-7,91.1,71.8,51.5,54.1,47.2,39.6,85,48,18,27.46,27.38,6,1,6,0.00
2013-8-8,91.1,70.7,50.9,53.5,47.5,42.4,76,48,21,27.48,27.39,5,1,5,0.00
2013-8-9,92.9,73.8,54.0,59.8,52.7,45.6,77,51,30,27.42,27.32,7,1,7,0.00
2013-8-10,91.8,76.4,61.6,61.0,55.0,48.8,79,51,27,27.48,27.36,10,1,10,0.03
2013-8-11,88.6,77.2,61.6,60.2,55.1,47.0,69,47,33,27.51,27.41,5,1,5,0.00
2013-8-12,90.4,72.1,55.4,61.1,53.5,47.6,81,55,30,27.51,27.43,5,1,5,0.01
2013-8-13,89.3,72.3,54.7,55.7,49.4,45.6,73,48,24,27.58,27.47,6,1,6,0.00
2013-8-14,93.2,76.8,53.6,59.4,51.0,43.1,81,45,19,27.49,27.36,6,1,6,0.00
2013-8-15,91.6,75.7,54.7,53.6,48.4,44.3,71,41,23,27.48,27.38,6,1,6,0.00
2013-8-16,87.7,70.9,55.4,57.1,49.1,43.9,71,48,29,27.51,27.44,8,1,8,0.00
2013-8-17,85.3,66.7,55.3,58.7,51.4,44.8,82,60,34,27.53,27.44,10,1,10,0.00
2013-8-18,85.7,70.9,50.6,54.4,47.3,40.7,79,46,27,27.58,27.47,9,2,9,0.00
2013-8-19,85.1,70.0,52.2,51.6,46.1,40.1,69,45,26,27.53,27.44,8,2,11,0.00
2013-8-20,83.7,66.2,50.0,48.4,39.6,28.9,72,42,18,27.56,27.46,8,1,8,0.00
2013-8-21,86.8,64.8,41.8,48.7,36.8,28.3,70,40,16,27.58,27.47,6,1,6,0.00
2013-8-22,92.2,67.5,47.5,52.1,41.7,32.1,64,43,19,27.48,27.31,5,1,5,0.00
2013-8-23,82.6,70.8,57.4,56.1,51.0,44.0,74,51,35,27.36,27.30,9,1,9,0.00
2013-8-24,85.3,68.9,50.8,51.8,46.8,42.4,78,48,28,27.39,27.27,7,1,7,0.01
2013-8-25,85.9,68.4,55.3,59.0,52.7,47.8,83,60,33,27.44,27.28,11,1,11,0.07
2013-8-26,81.4,65.8,52.2,56.4,50.4,43.1,91,62,31,27.49,27.38,6,1,6,0.01
2013-8-27,86.0,68.9,46.8,55.6,47.7,40.7,86,51,26,27.49,27.32,6,1,6,0.00
2013-8-28,86.4,67.8,50.2,54.0,46.6,40.5,79,50,26,27.41,27.28,7,1,7,0.00
2013-8-29,83.9,64.6,50.8,55.5,47.4,40.0,71,55,34,27.53,27.38,9,1,9,0.00
2013-8-30,83.0,67.6,50.8,57.3,48.0,36.7,83,53,29,27.62,27.51,12,2,12,0.00
2013-8-31,86.8,64.9,41.4,53.7,42.6,33.4,78,49,24,27.59,27.42,6,1,6,0.00
2013-9-1,92.7,82.9,47.5,53.1,47.5,36.7,72,31,19,27.41,27.30,8,2,8,0.00
2013-9-2,80.3,68.1,57.8,61.7,55.3,41.0,83,65,39,27.43,27.32,6,1,6,0.11
2013-9-3,85.5,71.6,56.3,62.6,56.0,51.0,90,61,37,27.48,27.41,7,1,7,0.00
2013-9-4,88.0,70.9,54.7,60.9,55.5,49.1,87,61,36,27.54,27.43,7,1,7,0.11
2013-9-5,81.7,68.4,61.6,66.2,61.5,57.3,91,79,57,27.53,27.36,7,1,7,0.27
2013-9-6,68.6,60.6,55.1,59.6,53.3,50.5,92,78,55,27.61,27.43,8,1,8,0.11
2013-9-7,72.4,59.8,50.0,55.3,51.5,45.9,90,75,47,27.61,27.52,5,1,5,0.03
2013-9-8,75.2,59.4,48.1,57.9,51.4,44.7,92,77,49,27.56,27.46,7,0,7,0.02
2013-9-9,83.2,63.3,49.5,58.8,51.0,45.1,89,67,35,27.51,27.44,5,1,5,0.00
2013-9-10,88.2,68.2,48.2,60.2,51.2,43.3,86,59,28,27.53,27.46,8,1,8,0.00
2013-9-11,93.6,70.1,50.0,59.0,50.8,44.3,86,55,25,27.56,27.48,6,1,6,0.00
2013-9-12,92.7,71.1,51.8,57.2,49.4,44.2,79,51,23,27.51,27.37,5,0,5,0.00
2013-9-13,93.2,69.3,48.4,58.6,49.1,41.6,81,53,25,27.37,27.26,8,1,8,0.00
2013-9-14,92.2,70.6,52.0,59.6,47.9,42.5,78,49,23,27.40,27.30,8,1,8,0.00
2013-9-15,91.3,70.7,52.6,54.1,46.3,40.6,69,45,24,27.35,27.15,17,1,17,0.00
2013-9-16,72.0,60.8,49.0,58.1,50.6,42.3,88,71,46,27.40,27.32,8,1,8,0.02
2013-9-17,71.3,54.9,43.2,53.2,47.2,39.1,89,77,49,27.34,27.19,8,1,8,0.24
2013-9-18,67.7,54.7,45.9,49.0,44.0,37.6,92,70,39,27.55,27.25,10,2,10,0.01
2013-9-19,74.9,54.0,36.0,48.3,38.5,31.9,92,61,26,27.60,27.41,8,1,8,0.00
2013-9-20,85.3,58.1,36.4,49.6,38.3,30.0,88,55,16,27.42,27.06,7,1,7,0.00
2013-9-21,65.7,56.8,42.7,48.4,43.6,35.5,77,62,47,27.22,27.07,7,1,7,0.00
2013-9-22,62.1,51.7,40.0,47.9,43.5,34.3,92,75,49,27.23,27.16,10,2,10,0.13
2013-9-23,61.0,55.3,45.7,47.5,43.4,39.0,80,65,52,27.41,27.39,11,2,11,0.00
2013-9-24,64.1,51.5,45.7,49.3,42.6,35.0,91,73,43,27.40,27.24,8,1,8,0.09
2013-9-25,56.9,47.0,38.2,45.6,41.3,34.3,89,81,64,27.35,27.25,6,0,6,0.09
2013-9-26,64.8,48.8,35.6,46.3,38.4,32.7,92,70,38,27.50,27.35,6,0,6,0.00
2013-9-27,52.9,47.1,41.0,43.6,39.7,35.9,88,76,57,27.49,27.39,9,2,9,0.00
2013-9-28,56.7,51.8,47.3,53.3,48.5,43.2,94,88,80,27.39,26.97,8,2,8,0.66
2013-9-29,53.5,48.9,43.9,50.6,43.7,40.4,92,82,69,27.17,26.94,12,3,12,0.36
2013-9-30,56.5,49.5,42.3,46.7,40.8,37.0,93,73,57,27.38,26.92,15,4,15,0.14
2013-10-1,55.4,45.8,37.6,42.8,38.3,34.1,91,76,56,27.58,27.37,8,2,11,0.00
2013-10-2,53.5,43.4,32.0,40.2,36.0,29.0,91,76,55,27.60,27.48,5,0,5,0.08
2013-10-3,63.9,44.7,30.4,43.0,33.7,27.4,90,68,34,27.82,27.49,7,0,7,0.07
2013-10-4,65.9,41.7,28.3,37.7,29.1,23.3,88,64,31,27.94,27.83,5,0,5,0.00
2013-10-5,67.7,44.3,28.6,39.4,30.0,23.5,86,61,25,27.86,27.70,6,0,6,0.00
2013-10-6,75.2,47.1,29.9,42.2,31.7,24.8,87,61,21,27.70,27.42,7,0,7,0.00
2013-10-7,62.3,47.8,34.9,45.0,35.8,27.8,83,65,45,27.43,27.31,10,2,10,0.02
2013-10-8,53.3,43.8,38.3,41.8,38.2,33.8,87,81,61,27.47,27.33,7,1,7,0.01
2013-10-9,60.1,43.9,32.9,44.3,37.1,29.2,91,78,49,27.52,27.37,5,0,5,0.02
2013-10-10,54.4,46.0,33.3,42.5,38.8,28.1,90,77,57,27.44,27.32,7,1,7,0.00
2013-10-11,58.0,44.8,29.3,43.0,33.4,25.7,88,66,41,27.56,27.45,6,0,6,0.00
2013-10-12,58.7,46.5,32.8,41.7,35.3,26.3,86,66,48,27.58,27.48,5,1,5,0.00
2013-10-13,58.0,38.9,27.0,38.3,28.0,22.0,88,68,38,27.72,27.58,6,0,6,0.00
2013-10-14,60.7,38.7,24.1,37.4,26.6,18.9,81,64,36,27.84,27.71,5,0,5,0.00
2013-10-15,60.7,38.0,23.2,38.2,26.2,17.4,85,65,36,27.84,27.62,5,0,5,0.00
2013-10-16,61.0,43.9,30.6,40.0,32.4,24.5,80,66,44,27.63,27.57,5,0,5,0.00
2013-10-17,58.3,39.4,27.5,41.9,30.8,22.9,89,73,51,27.72,27.62,4,0,4,0.00
2013-10-18,61.6,39.7,25.0,41.7,29.9,20.9,90,70,43,27.74,27.64,7,0,7,0.00
2013-10-19,62.5,41.4,26.6,42.2,30.8,22.2,87,68,41,27.64,27.53,5,0,5,0.00
2013-10-20,65.2,43.0,27.5,43.6,33.1,23.6,90,70,44,27.62,27.56,6,0,6,0.00
2013-10-21,68.2,44.9,29.2,45.2,34.4,24.9,90,69,39,27.68,27.61,4,0,4,0.00
2013-10-22,65.9,43.5,29.7,48.8,35.1,25.4,89,74,49,27.67,27.57,3,0,5,0.00
2013-10-23,64.6,42.9,30.6,48.9,36.1,26.1,91,78,55,27.64,27.56,5,0,5,0.00
2013-10-24,63.0,42.2,29.9,47.6,35.3,25.8,91,78,55,27.60,27.54,4,0,4,0.00
2013-10-25,58.3,39.4,29.0,47.2,34.1,25.0,93,82,65,27.71,27.59,4,0,4,0.00
2013-10-26,55.4,39.6,28.8,46.3,35.1,25.1,92,84,68,27.75,27.51,4,0,4,0.00
2013-10-27,47.9,39.0,27.4,44.6,33.6,23.6,93,82,52,27.52,27.25,12,1,12,0.02
2013-10-28,47.2,37.8,33.5,30.9,23.1,18.0,84,57,38,27.41,27.33,10,2,10,0.00
2013-10-29,50.8,33.0,21.1,25.1,18.9,13.7,75,58,35,27.46,27.38,6,0,6,0.00
2013-10-30,49.5,30.5,15.7,28.1,20.2,11.1,86,68,41,27.53,27.45,5,0,5,0.00
2013-10-31,56.9,42.5,29.0,40.1,31.8,24.5,86,67,48,27.60,27.46,6,1,6,0.00
2013-11-1,55.8,37.5,25.6,42.8,31.9,22.5,94,81,55,27.70,27.43,6,0,6,0.00
2013-11-2,50.0,43.1,36.7,44.9,36.9,30.6,94,79,59,27.44,27.07,15,3,15,0.33
2013-11-3,40.5,34.1,28.6,33.9,29.9,26.1,92,85,67,27.43,27.25,8,1,8,0.03
2013-11-4,37.8,31.6,24.5,31.7,27.7,21.4,92,86,75,27.61,27.43,4,0,4,0.00
2013-11-5,33.5,30.9,24.8,31.3,28.6,21.8,93,91,88,27.62,27.53,2,0,2,0.01
2013-11-6,39.8,34.5,31.3,36.3,32.1,28.8,93,91,87,27.78,27.62,3,0,3,0.07
2013-11-7,46.4,39.8,32.4,44.8,37.9,30.3,95,93,89,27.66,27.22,11,2,11,0.48
2013-11-8,47.5,39.0,28.8,38.1,34.1,26.8,92,83,61,27.60,27.35,9,2,9,0.00
2013-11-9,46.6,36.1,25.9,41.0,32.5,23.7,93,87,70,27.64,27.56,5,0,5,0.00
2013-11-10,45.7,40.5,38.2,40.9,37.3,35.3,91,88,81,27.67,27.55,3,0,3,0.00
2013-11-11,55.4,40.7,32.0,44.3,35.9,29.8,93,84,63,27.78,27.67,8,0,8,0.00
2013-11-12,47.5,37.8,29.5,43.2,35.3,27.6,94,91,85,27.78,27.65,4,0,4,0.00
2013-11-13,42.7,38.2,29.3,39.8,36.0,27.4,94,92,86,27.80,27.68,5,0,5,0.01
2013-11-14,45.7,35.9,29.2,40.6,33.1,27.4,94,90,77,27.68,27.38,5,0,5,0.00
2013-11-15,37.8,34.7,32.6,34.9,32.7,30.8,95,93,87,27.38,26.80,10,2,10,0.31
2013-11-16,43.2,36.1,30.8,35.8,30.8,25.8,94,82,61,27.12,26.68,12,3,12,0.12
2013-11-17,44.1,36.7,28.4,37.9,31.6,25.0,93,82,71,27.36,27.12,9,2,9,0.01
2013-11-18,47.0,42.4,39.4,40.1,35.2,32.9,93,76,63,27.37,27.14,7,2,7,0.20
2013-11-19,54.0,45.0,32.4,44.7,38.0,23.7,93,77,63,27.25,27.07,13,3,13,0.01
2013-11-20,36.4,26.6,13.3,23.7,9.0,2.3,73,49,27,27.82,27.25,8,1,8,0.01
2013-11-21,34.9,19.3,8.5,18.5,9.9,3.1,82,68,43,28.06,27.82,3,0,3,0.00
2013-11-22,35.3,19.9,9.4,23.2,12.3,5.0,85,73,53,28.13,28.00,5,0,5,0.00
2013-11-23,37.6,22.1,11.2,24.2,14.8,6.9,87,74,55,28.00,27.74,4,0,4,0.00
2013-11-24,41.2,24.2,13.0,28.4,17.5,9.0,87,76,56,27.78,27.68,3,0,3,0.00
2013-11-25,39.6,25.5,15.3,31.4,20.2,11.5,88,81,67,27.85,27.77,3,0,3,0.00
2013-11-26,41.2,26.9,16.9,32.9,21.9,13.6,89,82,67,27.78,27.62,3,0,3,0.00
2013-11-27,38.5,24.9,15.7,32.0,21.3,12.2,91,86,76,27.63,27.53,3,0,3,0.00
2013-11-28,39.6,24.4,14.4,32.8,20.4,11.5,90,85,74,27.64,27.55,4,0,4,0.00
2013-11-29,32.4,24.6,13.5,29.6,21.9,10.2,91,89,87,27.69,27.62,2,0,2,0.00
2013-11-30,36.2,31.0,25.0,33.0,28.8,22.8,94,91,87,27.71,27.57,3,0,3,0.05
2013-12-1,45.4,40.9,33.5,42.4,38.3,31.3,95,90,84,27.57,27.09,10,2,10,0.34
2013-12-2,43.6,32.9,25.2,40.4,26.1,19.5,89,76,57,27.37,27.07,12,2,12,0.00
2013-12-3,29.2,21.6,9.2,19.8,7.9,2.3,77,57,37,27.64,27.38,9,2,9,0.00
2013-12-4,27.7,12.9,2.7,13.6,3.8,-2.2,83,68,42,27.69,27.64,4,0,4,0.00
2013-12-5,21.2,11.2,1.6,11.5,5.6,-3.3,86,78,64,27.67,27.61,4,0,4,0.00
2013-12-6,19.3,9.4,0.5,6.1,-0.7,-6.5,84,65,47,27.64,27.57,7,1,7,0.00
2013-12-7,16.2,5.3,-4.5,-4.3,-8.6,-13.3,74,53,35,27.71,27.55,8,1,8,0.00
2013-12-8,15.7,5.5,-5.9,2.6,-3.2,-12.1,81,68,49,27.86,27.70,5,0,5,0.00
2013-12-9,22.3,17.1,10.3,12.8,7.3,1.4,79,65,56,27.85,27.71,7,0,7,0.00
2013-12-10,27.9,20.5,11.0,19.5,14.5,6.2,86,77,68,27.82,27.68,3,0,3,0.00
2013-12-11,36.7,27.1,21.2,24.7,19.6,15.1,81,74,59,27.81,27.71,4,0,4,0.00
2013-12-12,37.1,26.5,16.9,28.9,21.4,13.3,91,81,60,27.71,27.51,3,0,3,0.01
2013-12-13,32.4,29.6,26.1,29.5,27.2,23.6,93,90,87,27.81,27.55,3,0,3,0.03
2013-12-14,39.6,35.2,28.6,36.4,32.6,26.2,94,90,83,27.82,27.69,4,1,4,0.03
2013-12-15,44.3,36.5,28.3,38.8,32.9,26.1,94,87,75,27.71,27.64,7,1,7,0.01
2013-12-16,41.9,34.1,25.6,37.5,31.6,23.3,94,90,82,27.80,27.71,5,0,5,0.00
2013-12-17,45.0,31.2,23.0,36.0,26.9,20.5,93,84,61,27.72,27.40,3,0,3,0.01
2013-12-18,36.4,30.9,23.4,32.6,27.8,20.3,92,88,84,27.41,27.29,4,1,5,0.00
2013-12-19,34.2,22.7,15.5,24.3,16.6,12.3,89,78,58,27.61,27.38,4,0,4,0.00
2013-12-20,26.3,23.9,18.2,24.3,19.9,13.2,92,85,74,27.51,27.07,6,1,6,0.00
2013-12-21,29.2,26.7,21.4,27.4,24.4,18.7,93,91,90,27.49,27.19,3,0,3,0.00
2013-12-22,34.7,30.7,24.7,33.4,28.3,22.7,95,91,83,27.67,27.49,2,0,3,0.07
2013-12-23,42.1,36.2,27.7,39.9,34.2,24.9,95,92,84,27.72,27.42,11,2,11,0.28
2013-12-24,38.9,28.4,18.7,32.0,25.2,15.9,93,88,75,27.91,27.72,5,0,5,0.00
2013-12-25,34.9,25.1,15.7,31.5,22.5,12.9,92,90,83,27.91,27.78,2,0,2,0.01
2013-12-26,37.4,26.5,18.0,33.7,23.8,15.5,92,90,84,27.79,27.69,1,0,1,0.00
2013-12-27,34.7,26.1,16.7,32.1,23.6,14.0,93,90,84,27.69,27.47,4,0,4,0.00
2013-12-28,28.3,26.3,25.0,26.5,24.5,23.2,94,93,90,27.84,27.61,3,0,3,0.00
2013-12-29,33.7,26.5,18.7,31.1,24.6,16.5,94,92,88,27.82,27.62,3,0,4,0.00
2013-12-30,32.8,26.6,18.7,30.7,24.7,16.5,94,92,91,27.68,27.51,2,0,2,0.03
2013-12-31,34.9,31.7,29.2,32.9,30.0,27.4,95,93,92,27.73,27.50,5,0,5,0.01
2014-1-1,40.7,31.0,25.0,36.7,29.1,23.2,95,93,84,27.81,27.72,3,0,3,0.00
2014-1-2,39.8,34.9,29.2,34.2,31.6,27.6,95,88,78,27.73,27.19,9,1,9,0.00